createdAt,value
2023-02-09T00:04:35.404Z,88.84
2023-02-09T00:09:38.799Z,84.37
2023-02-09T00:14:42.229Z,81.15
2023-02-09T00:19:46.781Z,82.30
2023-02-09T00:24:50.002Z,82.95
2023-02-09T00:29:53.196Z,83.62
2023-02-09T00:34:57.686Z,82.17
2023-02-09T00:40:00.932Z,86.66
2023-02-09T00:45:04.062Z,85.31
2023-02-09T00:50:09.338Z,87.97
2023-02-09T00:55:12.506Z,87.95
2023-02-09T01:00:18.098Z,89.06
2023-02-09T01:05:22.633Z,89.50
2023-02-09T01:10:25.969Z,92.89
2023-02-09T01:15:29.099Z,92.04
2023-02-09T01:20:33.714Z,92.78
2023-02-09T01:25:36.868Z,93.70
2023-02-09T01:30:40.204Z,97.47
2023-02-09T01:35:44.844Z,94.96
2023-02-09T01:40:49.422Z,98.63
2023-02-09T01:45:54.826Z,100.00
2023-02-09T01:51:01.535Z,99.09
2023-02-09T01:56:09.368Z,97.18
2023-02-09T02:01:13.271Z,97.44
2023-02-09T02:06:19.562Z,100.00
2023-02-09T02:11:25.213Z,98.57
2023-02-09T02:16:42.758Z,98.27
2023-02-09T02:22:23.117Z,98.55
2023-02-09T02:27:33.297Z,100.00
2023-02-09T02:32:53.962Z,100.00
2023-02-09T02:38:04.361Z,100.00
2023-02-09T02:43:15.112Z,100.00
2023-02-09T02:48:28.602Z,100.00
2023-02-09T02:53:35.261Z,100.00
2023-02-09T02:58:42.109Z,100.00
2023-02-09T03:03:48.436Z,100.00
2023-02-09T03:08:54.374Z,100.00
2023-02-09T03:49:49.859Z,100.00
2023-02-09T03:54:53.027Z,100.00
2023-02-09T03:59:56.195Z,100.00
2023-02-09T04:05:00.823Z,100.00
2023-02-09T04:10:05.541Z,100.00
2023-02-09T04:15:09.405Z,100.00
2023-02-09T04:20:14.223Z,100.00
2023-02-09T04:25:17.638Z,100.00
2023-02-09T04:30:21.341Z,100.00
2023-02-09T04:35:25.984Z,100.00
2023-02-09T04:40:29.371Z,100.00
2023-02-09T04:45:32.611Z,100.00
2023-02-09T04:50:37.142Z,100.00
2023-02-09T04:55:40.822Z,100.00
2023-02-09T05:00:44.465Z,100.00
2023-02-09T05:05:49.525Z,100.00
2023-02-09T05:10:53.620Z,100.00
2023-02-09T05:16:21.324Z,100.00
2023-02-09T05:21:26.369Z,100.00
2023-02-09T05:33:41.660Z,100.00
2023-02-09T05:38:46.199Z,100.00
2023-02-09T05:43:49.340Z,100.00
2023-02-09T05:48:52.491Z,100.00
2023-02-09T05:53:57.212Z,100.00
2023-02-09T05:59:01.735Z,100.00
2023-02-09T06:04:06.615Z,100.00
2023-02-09T06:09:11.654Z,100.00
2023-02-09T06:14:15.335Z,100.00
2023-02-09T06:19:20.649Z,100.00
2023-02-09T06:24:25.334Z,100.00
2023-02-09T06:29:28.693Z,100.00
2023-02-09T06:34:31.956Z,100.00
2023-02-09T06:39:36.522Z,100.00
2023-02-09T06:44:39.700Z,100.00
2023-02-09T06:49:42.910Z,100.00
2023-02-09T06:54:47.499Z,100.00
2023-02-09T06:59:50.691Z,100.00
2023-02-09T07:04:53.884Z,100.00
2023-02-09T07:09:58.707Z,100.00
2023-02-09T07:15:02.145Z,100.00
2023-02-09T07:20:06.455Z,100.00
2023-02-09T07:25:11.154Z,100.00
2023-02-09T07:30:15.416Z,100.00
2023-02-09T07:35:18.765Z,100.00
2023-02-09T07:40:23.432Z,100.00
2023-02-09T07:45:26.880Z,100.00
2023-02-09T07:50:30.133Z,100.00
2023-02-09T07:55:34.894Z,100.00
2023-02-09T08:00:38.457Z,100.00
2023-02-09T08:05:47.207Z,100.00
2023-02-09T08:10:52.746Z,100.00
2023-02-09T08:15:59.256Z,100.00
2023-02-09T08:21:02.627Z,100.00
2023-02-09T08:26:11.163Z,100.00
2023-02-09T08:31:16.149Z,100.00
2023-02-09T08:36:21.011Z,100.00
2023-02-09T08:41:25.786Z,98.61
2023-02-09T08:46:29.124Z,95.93
2023-02-09T08:51:32.388Z,91.25
2023-02-09T08:56:37.125Z,86.88
2023-02-09T09:01:40.640Z,82.80
2023-02-09T09:06:44.017Z,80.30
2023-02-09T09:11:48.619Z,74.60
2023-02-09T09:16:51.849Z,76.92
2023-02-09T09:21:55.077Z,70.10
2023-02-09T09:26:59.803Z,65.29
2023-02-09T09:32:03.345Z,63.38
2023-02-09T09:37:06.808Z,65.83
2023-02-09T09:42:24.253Z,67.58
2023-02-09T09:47:36.123Z,65.23
2023-02-09T09:52:43.744Z,64.71
2023-02-09T09:57:48.584Z,63.99
2023-02-09T10:02:52.002Z,61.89
2023-02-09T10:08:01.079Z,57.85
2023-02-09T10:13:15.870Z,56.78
2023-02-09T10:18:25.239Z,56.87
2023-02-09T10:23:37.607Z,55.25
2023-02-09T10:28:44.735Z,56.20
2023-02-09T10:33:55.325Z,56.38
2023-02-09T10:39:18.226Z,57.07
2023-02-09T10:44:25.883Z,56.91
2023-02-09T10:49:35.449Z,55.43
2023-02-09T10:54:43.225Z,55.12
2023-02-09T10:59:52.562Z,53.91
2023-02-09T11:04:55.782Z,53.79
2023-02-09T11:10:01.035Z,53.07
2023-02-09T11:15:13.680Z,52.02
2023-02-09T11:20:28.855Z,51.48
2023-02-09T11:25:38.389Z,52.14
2023-02-09T11:31:03.976Z,51.80
2023-02-09T11:36:20.305Z,51.38
2023-02-09T11:41:47.772Z,51.77
2023-02-09T11:47:05.429Z,50.28
2023-02-09T11:52:10.269Z,50.64
2023-02-09T11:57:19.597Z,50.41
2023-02-09T12:02:40.024Z,51.67
2023-02-09T12:07:50.024Z,49.87
2023-02-09T12:12:59.101Z,52.48
2023-02-09T12:18:07.217Z,50.65
2023-02-09T12:23:19.732Z,48.14
2023-02-09T12:28:45.749Z,48.68
2023-02-09T12:34:13.909Z,48.29
2023-02-09T12:39:26.020Z,47.35
2023-02-09T12:44:38.899Z,47.19
2023-02-09T12:49:45.183Z,47.12
2023-02-09T12:54:54.833Z,45.84
2023-02-09T13:00:32.425Z,47.18
2023-02-09T13:05:43.158Z,46.81
2023-02-09T13:10:55.503Z,46.03
2023-02-09T13:16:18.209Z,47.69
2023-02-09T13:21:33.850Z,46.59
2023-02-09T13:26:38.963Z,47.77
2023-02-09T13:31:43.927Z,46.76
2023-02-09T13:36:56.726Z,48.36
2023-02-09T13:42:00.081Z,47.05
2023-02-09T13:47:07.860Z,49.10
2023-02-09T13:52:15.419Z,47.33
2023-02-09T13:57:31.865Z,48.46
2023-02-09T14:02:36.596Z,47.14
2023-02-09T14:07:41.655Z,48.73
2023-02-09T14:12:55.684Z,47.96
2023-02-09T14:17:59.353Z,48.16
2023-02-09T14:23:04.070Z,48.08
2023-02-09T14:28:07.315Z,47.75
2023-02-09T14:33:25.388Z,48.30
2023-02-09T14:38:42.653Z,49.02
2023-02-09T14:43:46.060Z,49.37
2023-02-09T14:48:49.596Z,50.24
2023-02-09T14:53:54.977Z,49.02
2023-02-09T14:58:58.399Z,48.27
2023-02-09T15:04:01.575Z,50.70
2023-02-09T15:09:06.506Z,51.65
2023-02-09T15:14:12.381Z,50.94
2023-02-09T15:19:20.321Z,52.08
2023-02-09T15:24:24.961Z,53.04
2023-02-09T15:29:28.269Z,52.64
2023-02-09T15:34:31.648Z,54.38
2023-02-09T15:39:36.584Z,56.44
2023-02-09T15:44:56.982Z,57.57
2023-02-09T15:50:00.240Z,60.06
2023-02-09T15:55:05.360Z,61.15
2023-02-09T16:00:15.791Z,66.89
2023-02-09T16:05:19.119Z,68.01
2023-02-09T16:10:27.230Z,75.77
2023-02-09T16:15:30.544Z,74.65
2023-02-09T16:20:33.981Z,82.56
2023-02-09T16:25:38.560Z,83.87
2023-02-09T16:30:51.165Z,82.75
2023-02-09T16:35:57.877Z,81.84
2023-02-09T16:41:02.413Z,80.81
2023-02-09T16:46:06.294Z,85.91
2023-02-09T16:51:14.430Z,83.60
2023-02-09T16:56:19.967Z,88.27
2023-02-09T17:01:24.948Z,89.86
2023-02-09T17:06:31.218Z,89.85
2023-02-09T17:11:36.101Z,88.41
2023-02-09T17:16:43.451Z,89.37
2023-02-09T17:21:46.772Z,89.78
2023-02-09T17:26:51.422Z,93.61
2023-02-09T17:31:54.785Z,93.19
2023-02-09T17:36:58.546Z,92.81
2023-02-09T17:42:03.307Z,100.00
2023-02-09T17:47:06.593Z,95.55
2023-02-09T17:52:16.495Z,94.41
2023-02-09T17:57:22.208Z,97.12
2023-02-09T18:02:25.910Z,95.36
2023-02-09T18:07:29.522Z,95.91
2023-02-09T18:12:34.160Z,94.48
2023-02-09T18:17:40.160Z,95.77
2023-02-09T18:22:44.786Z,94.56
2023-02-09T18:27:51.414Z,99.47
2023-02-09T18:32:54.890Z,96.57
2023-02-09T18:37:58.298Z,97.68
2023-02-09T18:43:04.674Z,100.00
2023-02-09T18:48:08.101Z,99.01
2023-02-09T18:53:12.833Z,100.00
2023-02-09T18:58:17.545Z,99.75
2023-02-09T19:03:21.392Z,99.02
2023-02-09T19:08:25.328Z,100.00
2023-02-09T19:13:33.847Z,100.00
2023-02-09T19:18:38.663Z,99.36
2023-02-09T19:23:42.318Z,99.39
2023-02-09T19:28:48.459Z,99.65
2023-02-09T19:33:56.490Z,99.55
2023-02-09T19:39:00.810Z,100.00
2023-02-09T19:44:06.401Z,100.00
2023-02-09T19:49:10.105Z,100.00
2023-02-09T19:54:13.546Z,100.00
2023-02-09T19:59:19.546Z,100.00
2023-02-09T20:04:23.593Z,100.00
2023-02-09T20:09:27.210Z,100.00
2023-02-09T20:14:33.588Z,100.00
2023-02-09T20:19:38.231Z,100.00
2023-02-09T20:24:42.915Z,100.00
2023-02-09T20:29:48.251Z,100.00
2023-02-09T20:34:52.832Z,100.00
2023-02-09T20:39:56.969Z,100.00
2023-02-09T20:45:19.041Z,100.00
2023-02-09T20:50:22.429Z,100.00
2023-02-09T20:55:25.725Z,100.00
2023-02-09T21:00:30.703Z,100.00
2023-02-09T21:05:34.117Z,100.00
2023-02-09T21:10:38.631Z,100.00
2023-02-09T21:15:43.349Z,100.00
2023-02-09T21:20:46.791Z,100.00
2023-02-09T21:25:50.060Z,100.00
2023-02-09T21:30:55.011Z,100.00
2023-02-09T21:35:59.585Z,100.00
2023-02-09T21:41:02.796Z,100.00
2023-02-09T21:46:07.498Z,100.00
2023-02-09T21:51:10.912Z,100.00
2023-02-09T21:56:14.429Z,100.00
2023-02-09T22:01:19.351Z,100.00
2023-02-09T22:06:22.693Z,100.00
2023-02-09T22:11:26.120Z,100.00
2023-02-09T22:16:31.036Z,100.00
2023-02-09T22:21:34.210Z,100.00
2023-02-09T22:26:39.594Z,100.00
2023-02-09T22:31:44.772Z,100.00
2023-02-09T22:36:51.675Z,100.00
2023-02-09T22:41:58.118Z,100.00
2023-02-09T22:47:02.860Z,100.00
2023-02-09T22:52:06.327Z,100.00
2023-02-09T22:57:09.755Z,100.00
2023-02-09T23:02:15.712Z,100.00
2023-02-09T23:07:19.034Z,100.00
2023-02-09T23:12:22.521Z,100.00
2023-02-09T23:17:27.210Z,100.00
2023-02-09T23:22:30.350Z,100.00
2023-02-09T23:27:33.464Z,100.00
2023-02-09T23:32:38.005Z,100.00
2023-02-09T23:37:41.192Z,100.00
2023-02-09T23:42:44.362Z,100.00
2023-02-09T23:47:49.104Z,100.00
2023-02-09T23:52:52.267Z,100.00
2023-02-09T23:57:55.627Z,100.00
